sensor_id;sensor_type;location;lat;lon;timestamp;P1;durP1;ratioP1;P2;durP2;ratioP2
16660;SDS011;8444;52.012;5.048;2023-02-15T00:01:16;50.93;;;27.47;;
16660;SDS011;8444;52.012;5.048;2023-02-15T00:03:41;52.77;;;28.00;;
16660;SDS011;8444;52.012;5.048;2023-02-15T00:06:06;48.40;;;27.90;;
16660;SDS011;8444;52.012;5.048;2023-02-15T00:08:32;43.90;;;26.67;;
16660;SDS011;8444;52.012;5.048;2023-02-15T00:11:04;46.37;;;26.63;;
16660;SDS011;8444;52.012;5.048;2023-02-15T00:13:30;45.17;;;25.93;;
16660;SDS011;8444;52.012;5.048;2023-02-15T00:15:59;42.67;;;25.57;;
16660;SDS011;8444;52.012;5.048;2023-02-15T00:18:24;49.83;;;27.47;;
16660;SDS011;8444;52.012;5.048;2023-02-15T00:20:50;52.07;;;27.37;;
16660;SDS011;8444;52.012;5.048;2023-02-15T00:23:15;48.00;;;25.50;;
16660;SDS011;8444;52.012;5.048;2023-02-15T00:25:40;46.70;;;26.53;;
16660;SDS011;8444;52.012;5.048;2023-02-15T00:28:05;44.33;;;26.00;;
16660;SDS011;8444;52.012;5.048;2023-02-15T00:30:31;50.60;;;27.17;;
16660;SDS011;8444;52.012;5.048;2023-02-15T00:32:56;45.10;;;27.10;;
16660;SDS011;8444;52.012;5.048;2023-02-15T00:35:21;48.10;;;27.60;;
16660;SDS011;8444;52.012;5.048;2023-02-15T00:37:46;46.47;;;26.70;;
16660;SDS011;8444;52.012;5.048;2023-02-15T00:40:12;47.70;;;26.03;;
16660;SDS011;8444;52.012;5.048;2023-02-15T00:42:37;47.03;;;27.23;;
16660;SDS011;8444;52.012;5.048;2023-02-15T00:45:02;54.43;;;30.07;;
16660;SDS011;8444;52.012;5.048;2023-02-15T00:47:27;58.13;;;30.87;;
16660;SDS011;8444;52.012;5.048;2023-02-15T00:49:53;51.83;;;28.00;;
16660;SDS011;8444;52.012;5.048;2023-02-15T00:52:18;56.43;;;29.63;;
16660;SDS011;8444;52.012;5.048;2023-02-15T00:54:43;49.43;;;27.47;;
16660;SDS011;8444;52.012;5.048;2023-02-15T00:57:08;49.80;;;27.60;;
16660;SDS011;8444;52.012;5.048;2023-02-15T00:59:33;48.10;;;26.47;;
16660;SDS011;8444;52.012;5.048;2023-02-15T01:01:58;52.50;;;28.73;;
16660;SDS011;8444;52.012;5.048;2023-02-15T01:04:24;55.60;;;28.73;;
16660;SDS011;8444;52.012;5.048;2023-02-15T01:06:49;51.20;;;27.20;;
16660;SDS011;8444;52.012;5.048;2023-02-15T01:09:14;48.80;;;26.30;;
16660;SDS011;8444;52.012;5.048;2023-02-15T01:11:39;49.87;;;25.47;;
16660;SDS011;8444;52.012;5.048;2023-02-15T01:14:04;46.93;;;27.47;;
16660;SDS011;8444;52.012;5.048;2023-02-15T01:16:30;49.70;;;26.87;;
16660;SDS011;8444;52.012;5.048;2023-02-15T01:18:56;49.73;;;26.43;;
16660;SDS011;8444;52.012;5.048;2023-02-15T01:21:22;49.77;;;27.83;;
16660;SDS011;8444;52.012;5.048;2023-02-15T01:23:48;46.73;;;26.20;;
16660;SDS011;8444;52.012;5.048;2023-02-15T01:26:14;45.37;;;27.00;;
16660;SDS011;8444;52.012;5.048;2023-02-15T01:28:39;56.33;;;28.67;;
16660;SDS011;8444;52.012;5.048;2023-02-15T01:31:08;50.50;;;24.53;;
16660;SDS011;8444;52.012;5.048;2023-02-15T01:33:34;46.70;;;25.77;;
16660;SDS011;8444;52.012;5.048;2023-02-15T01:36:00;51.43;;;26.40;;
16660;SDS011;8444;52.012;5.048;2023-02-15T01:38:25;50.60;;;27.07;;
16660;SDS011;8444;52.012;5.048;2023-02-15T01:40:51;46.53;;;25.70;;
16660;SDS011;8444;52.012;5.048;2023-02-15T01:43:17;52.97;;;27.93;;
16660;SDS011;8444;52.012;5.048;2023-02-15T01:45:43;47.37;;;25.77;;
16660;SDS011;8444;52.012;5.048;2023-02-15T01:48:21;60.07;;;29.03;;
16660;SDS011;8444;52.012;5.048;2023-02-15T01:50:49;51.73;;;27.23;;
16660;SDS011;8444;52.012;5.048;2023-02-15T01:53:32;48.33;;;26.57;;
16660;SDS011;8444;52.012;5.048;2023-02-15T01:58:24;50.53;;;27.77;;
16660;SDS011;8444;52.012;5.048;2023-02-15T02:00:50;55.33;;;27.23;;
16660;SDS011;8444;52.012;5.048;2023-02-15T02:03:15;45.10;;;26.57;;
16660;SDS011;8444;52.012;5.048;2023-02-15T02:05:41;47.87;;;26.23;;
16660;SDS011;8444;52.012;5.048;2023-02-15T02:08:06;51.10;;;27.50;;
16660;SDS011;8444;52.012;5.048;2023-02-15T02:10:32;52.13;;;26.67;;
16660;SDS011;8444;52.012;5.048;2023-02-15T02:13:02;52.30;;;28.53;;
16660;SDS011;8444;52.012;5.048;2023-02-15T02:15:30;51.20;;;26.70;;
16660;SDS011;8444;52.012;5.048;2023-02-15T02:20:52;52.40;;;27.83;;
16660;SDS011;8444;52.012;5.048;2023-02-15T02:23:29;51.37;;;25.77;;
16660;SDS011;8444;52.012;5.048;2023-02-15T02:33:40;46.53;;;26.97;;
16660;SDS011;8444;52.012;5.048;2023-02-15T02:43:50;49.17;;;24.83;;
16660;SDS011;8444;52.012;5.048;2023-02-15T02:46:20;46.70;;;25.13;;
16660;SDS011;8444;52.012;5.048;2023-02-15T02:48:47;52.87;;;27.53;;
16660;SDS011;8444;52.012;5.048;2023-02-15T02:51:13;50.27;;;28.57;;
16660;SDS011;8444;52.012;5.048;2023-02-15T02:53:45;62.87;;;27.00;;
16660;SDS011;8444;52.012;5.048;2023-02-15T02:59:00;52.40;;;25.73;;
16660;SDS011;8444;52.012;5.048;2023-02-15T03:01:32;49.17;;;25.60;;
16660;SDS011;8444;52.012;5.048;2023-02-15T03:04:03;48.77;;;25.20;;
16660;SDS011;8444;52.012;5.048;2023-02-15T03:06:37;55.30;;;26.87;;
16660;SDS011;8444;52.012;5.048;2023-02-15T03:09:09;44.97;;;26.10;;
16660;SDS011;8444;52.012;5.048;2023-02-15T03:11:39;46.70;;;24.00;;
16660;SDS011;8444;52.012;5.048;2023-02-15T03:14:04;50.63;;;25.43;;
16660;SDS011;8444;52.012;5.048;2023-02-15T03:16:29;50.37;;;27.20;;
16660;SDS011;8444;52.012;5.048;2023-02-15T03:19:00;51.23;;;25.90;;
16660;SDS011;8444;52.012;5.048;2023-02-15T03:21:34;55.40;;;25.30;;
16660;SDS011;8444;52.012;5.048;2023-02-15T03:24:04;54.43;;;26.03;;
16660;SDS011;8444;52.012;5.048;2023-02-15T03:26:32;48.80;;;25.47;;
16660;SDS011;8444;52.012;5.048;2023-02-15T03:28:57;47.87;;;25.53;;
16660;SDS011;8444;52.012;5.048;2023-02-15T03:31:24;51.67;;;25.87;;
16660;SDS011;8444;52.012;5.048;2023-02-15T03:33:53;48.23;;;25.83;;
16660;SDS011;8444;52.012;5.048;2023-02-15T03:39:04;45.90;;;24.67;;
16660;SDS011;8444;52.012;5.048;2023-02-15T03:41:32;48.07;;;24.63;;
16660;SDS011;8444;52.012;5.048;2023-02-15T03:44:00;43.40;;;24.70;;
16660;SDS011;8444;52.012;5.048;2023-02-15T03:49:04;48.97;;;25.10;;
16660;SDS011;8444;52.012;5.048;2023-02-15T03:51:33;49.37;;;24.87;;
16660;SDS011;8444;52.012;5.048;2023-02-15T03:54:03;53.07;;;25.30;;
16660;SDS011;8444;52.012;5.048;2023-02-15T03:56:29;52.00;;;24.87;;
16660;SDS011;8444;52.012;5.048;2023-02-15T03:58:54;52.47;;;26.23;;
16660;SDS011;8444;52.012;5.048;2023-02-15T04:01:52;50.57;;;25.03;;
16660;SDS011;8444;52.012;5.048;2023-02-15T04:04:26;46.80;;;25.30;;
16660;SDS011;8444;52.012;5.048;2023-02-15T04:06:53;48.53;;;23.57;;
16660;SDS011;8444;52.012;5.048;2023-02-15T04:09:18;45.27;;;23.33;;
16660;SDS011;8444;52.012;5.048;2023-02-15T04:12:02;43.03;;;24.07;;
16660;SDS011;8444;52.012;5.048;2023-02-15T04:14:27;46.73;;;24.90;;
16660;SDS011;8444;52.012;5.048;2023-02-15T04:17:11;45.43;;;24.40;;
16660;SDS011;8444;52.012;5.048;2023-02-15T04:19:36;53.30;;;25.03;;
16660;SDS011;8444;52.012;5.048;2023-02-15T04:22:20;47.17;;;25.50;;
16660;SDS011;8444;52.012;5.048;2023-02-15T04:25:04;47.53;;;23.77;;
16660;SDS011;8444;52.012;5.048;2023-02-15T04:27:39;46.93;;;23.40;;
16660;SDS011;8444;52.012;5.048;2023-02-15T04:30:05;46.07;;;23.73;;
16660;SDS011;8444;52.012;5.048;2023-02-15T04:32:30;54.53;;;23.00;;
16660;SDS011;8444;52.012;5.048;2023-02-15T04:34:55;51.17;;;24.53;;
16660;SDS011;8444;52.012;5.048;2023-02-15T04:37:20;51.47;;;23.60;;
16660;SDS011;8444;52.012;5.048;2023-02-15T04:39:46;51.00;;;25.93;;
16660;SDS011;8444;52.012;5.048;2023-02-15T04:42:11;50.47;;;25.20;;
16660;SDS011;8444;52.012;5.048;2023-02-15T04:44:36;47.20;;;23.03;;
16660;SDS011;8444;52.012;5.048;2023-02-15T04:47:01;45.33;;;24.93;;
16660;SDS011;8444;52.012;5.048;2023-02-15T04:49:26;53.43;;;25.57;;
16660;SDS011;8444;52.012;5.048;2023-02-15T04:51:52;43.03;;;23.70;;
16660;SDS011;8444;52.012;5.048;2023-02-15T04:54:17;52.70;;;26.50;;
16660;SDS011;8444;52.012;5.048;2023-02-15T04:56:42;49.27;;;25.13;;
16660;SDS011;8444;52.012;5.048;2023-02-15T04:59:09;50.90;;;25.17;;
16660;SDS011;8444;52.012;5.048;2023-02-15T05:01:35;46.40;;;23.50;;
16660;SDS011;8444;52.012;5.048;2023-02-15T05:04:00;46.67;;;24.63;;
16660;SDS011;8444;52.012;5.048;2023-02-15T05:06:25;46.40;;;24.73;;
16660;SDS011;8444;52.012;5.048;2023-02-15T05:08:50;46.60;;;23.40;;
16660;SDS011;8444;52.012;5.048;2023-02-15T05:11:15;47.47;;;26.00;;
16660;SDS011;8444;52.012;5.048;2023-02-15T05:13:40;44.70;;;23.77;;
16660;SDS011;8444;52.012;5.048;2023-02-15T05:16:06;47.13;;;24.10;;
16660;SDS011;8444;52.012;5.048;2023-02-15T05:18:32;50.83;;;24.03;;
16660;SDS011;8444;52.012;5.048;2023-02-15T05:20:57;46.87;;;25.23;;
16660;SDS011;8444;52.012;5.048;2023-02-15T05:23:22;51.67;;;24.47;;
16660;SDS011;8444;52.012;5.048;2023-02-15T05:25:48;45.50;;;22.30;;
16660;SDS011;8444;52.012;5.048;2023-02-15T05:28:32;48.07;;;24.07;;
16660;SDS011;8444;52.012;5.048;2023-02-15T05:33:29;47.60;;;23.60;;
16660;SDS011;8444;52.012;5.048;2023-02-15T05:35:54;48.53;;;24.47;;
16660;SDS011;8444;52.012;5.048;2023-02-15T05:38:19;49.00;;;23.63;;
16660;SDS011;8444;52.012;5.048;2023-02-15T05:40:45;50.47;;;23.23;;
16660;SDS011;8444;52.012;5.048;2023-02-15T05:43:10;46.27;;;25.40;;
16660;SDS011;8444;52.012;5.048;2023-02-15T05:45:35;51.10;;;23.63;;
16660;SDS011;8444;52.012;5.048;2023-02-15T05:48:00;47.73;;;24.40;;
16660;SDS011;8444;52.012;5.048;2023-02-15T05:50:26;50.97;;;25.47;;
16660;SDS011;8444;52.012;5.048;2023-02-15T05:52:51;55.13;;;25.13;;
16660;SDS011;8444;52.012;5.048;2023-02-15T05:55:16;48.03;;;25.10;;
16660;SDS011;8444;52.012;5.048;2023-02-15T05:57:41;43.90;;;23.57;;
16660;SDS011;8444;52.012;5.048;2023-02-15T06:00:07;53.87;;;23.77;;
16660;SDS011;8444;52.012;5.048;2023-02-15T06:02:34;50.53;;;25.30;;
16660;SDS011;8444;52.012;5.048;2023-02-15T06:04:59;49.90;;;24.43;;
16660;SDS011;8444;52.012;5.048;2023-02-15T06:07:24;54.00;;;25.80;;
16660;SDS011;8444;52.012;5.048;2023-02-15T06:09:49;54.17;;;24.27;;
16660;SDS011;8444;52.012;5.048;2023-02-15T06:12:14;53.40;;;25.40;;
16660;SDS011;8444;52.012;5.048;2023-02-15T06:14:40;58.00;;;24.83;;
16660;SDS011;8444;52.012;5.048;2023-02-15T06:17:05;48.70;;;24.53;;
16660;SDS011;8444;52.012;5.048;2023-02-15T06:19:30;46.20;;;24.43;;
16660;SDS011;8444;52.012;5.048;2023-02-15T06:21:55;52.33;;;26.53;;
16660;SDS011;8444;52.012;5.048;2023-02-15T06:24:20;56.33;;;24.67;;
16660;SDS011;8444;52.012;5.048;2023-02-15T06:26:46;56.20;;;24.27;;
16660;SDS011;8444;52.012;5.048;2023-02-15T06:29:11;51.17;;;24.77;;
16660;SDS011;8444;52.012;5.048;2023-02-15T06:31:36;48.80;;;26.30;;
16660;SDS011;8444;52.012;5.048;2023-02-15T06:34:01;52.77;;;24.53;;
16660;SDS011;8444;52.012;5.048;2023-02-15T06:36:27;60.23;;;25.10;;
16660;SDS011;8444;52.012;5.048;2023-02-15T06:38:53;52.90;;;25.43;;
16660;SDS011;8444;52.012;5.048;2023-02-15T06:41:18;52.10;;;24.17;;
16660;SDS011;8444;52.012;5.048;2023-02-15T06:43:43;50.97;;;24.57;;
16660;SDS011;8444;52.012;5.048;2023-02-15T06:46:09;56.67;;;26.60;;
16660;SDS011;8444;52.012;5.048;2023-02-15T06:48:34;54.13;;;25.17;;
16660;SDS011;8444;52.012;5.048;2023-02-15T06:50:59;50.03;;;24.17;;
16660;SDS011;8444;52.012;5.048;2023-02-15T06:53:24;52.20;;;25.73;;
16660;SDS011;8444;52.012;5.048;2023-02-15T06:55:49;46.50;;;24.80;;
16660;SDS011;8444;52.012;5.048;2023-02-15T06:58:15;54.73;;;25.43;;
16660;SDS011;8444;52.012;5.048;2023-02-15T07:00:40;51.10;;;24.30;;
16660;SDS011;8444;52.012;5.048;2023-02-15T07:03:05;50.93;;;24.10;;
16660;SDS011;8444;52.012;5.048;2023-02-15T07:05:32;54.53;;;24.87;;
16660;SDS011;8444;52.012;5.048;2023-02-15T07:07:58;51.33;;;26.53;;
16660;SDS011;8444;52.012;5.048;2023-02-15T07:10:23;62.70;;;26.83;;
16660;SDS011;8444;52.012;5.048;2023-02-15T07:12:48;56.03;;;28.33;;
16660;SDS011;8444;52.012;5.048;2023-02-15T07:15:15;60.43;;;28.23;;
16660;SDS011;8444;52.012;5.048;2023-02-15T07:17:41;51.73;;;26.83;;
16660;SDS011;8444;52.012;5.048;2023-02-15T07:20:07;52.73;;;26.33;;
16660;SDS011;8444;52.012;5.048;2023-02-15T07:22:33;61.77;;;27.67;;
16660;SDS011;8444;52.012;5.048;2023-02-15T07:24:59;54.30;;;27.20;;
16660;SDS011;8444;52.012;5.048;2023-02-15T07:27:24;60.97;;;28.63;;
16660;SDS011;8444;52.012;5.048;2023-02-15T07:29:49;58.90;;;29.23;;
16660;SDS011;8444;52.012;5.048;2023-02-15T07:32:14;65.57;;;29.43;;
16660;SDS011;8444;52.012;5.048;2023-02-15T07:34:40;56.27;;;26.83;;
16660;SDS011;8444;52.012;5.048;2023-02-15T07:37:05;53.97;;;27.77;;
16660;SDS011;8444;52.012;5.048;2023-02-15T07:39:30;63.80;;;28.50;;
16660;SDS011;8444;52.012;5.048;2023-02-15T07:41:55;53.30;;;27.90;;
16660;SDS011;8444;52.012;5.048;2023-02-15T07:44:20;58.93;;;29.77;;
16660;SDS011;8444;52.012;5.048;2023-02-15T07:46:46;55.47;;;29.20;;
16660;SDS011;8444;52.012;5.048;2023-02-15T07:49:11;54.03;;;27.87;;
16660;SDS011;8444;52.012;5.048;2023-02-15T07:51:36;55.60;;;28.47;;
16660;SDS011;8444;52.012;5.048;2023-02-15T07:54:01;62.93;;;29.70;;
16660;SDS011;8444;52.012;5.048;2023-02-15T07:56:27;59.27;;;26.97;;
16660;SDS011;8444;52.012;5.048;2023-02-15T07:58:52;69.03;;;31.77;;
16660;SDS011;8444;52.012;5.048;2023-02-15T08:01:18;65.43;;;30.70;;
16660;SDS011;8444;52.012;5.048;2023-02-15T08:03:44;68.50;;;32.33;;
16660;SDS011;8444;52.012;5.048;2023-02-15T08:06:09;61.53;;;31.20;;
16660;SDS011;8444;52.012;5.048;2023-02-15T08:08:36;66.20;;;31.40;;
16660;SDS011;8444;52.012;5.048;2023-02-15T08:13:46;71.33;;;35.50;;
16660;SDS011;8444;52.012;5.048;2023-02-15T08:18:46;75.57;;;34.93;;
16660;SDS011;8444;52.012;5.048;2023-02-15T08:21:12;78.90;;;35.13;;
16660;SDS011;8444;52.012;5.048;2023-02-15T08:23:37;78.00;;;37.07;;
16660;SDS011;8444;52.012;5.048;2023-02-15T08:26:02;80.43;;;39.90;;
16660;SDS011;8444;52.012;5.048;2023-02-15T08:28:29;78.57;;;40.20;;
16660;SDS011;8444;52.012;5.048;2023-02-15T08:30:54;79.83;;;39.07;;
16660;SDS011;8444;52.012;5.048;2023-02-15T08:33:19;79.17;;;39.53;;
16660;SDS011;8444;52.012;5.048;2023-02-15T08:35:45;85.13;;;40.77;;
16660;SDS011;8444;52.012;5.048;2023-02-15T08:38:10;77.97;;;40.50;;
16660;SDS011;8444;52.012;5.048;2023-02-15T08:40:35;74.57;;;40.30;;
16660;SDS011;8444;52.012;5.048;2023-02-15T08:43:02;80.63;;;38.27;;
16660;SDS011;8444;52.012;5.048;2023-02-15T08:45:28;73.97;;;39.60;;
16660;SDS011;8444;52.012;5.048;2023-02-15T08:47:53;71.90;;;36.40;;
16660;SDS011;8444;52.012;5.048;2023-02-15T08:50:18;60.60;;;33.70;;
16660;SDS011;8444;52.012;5.048;2023-02-15T08:52:43;57.63;;;35.10;;
16660;SDS011;8444;52.012;5.048;2023-02-15T08:55:08;56.70;;;33.03;;
16660;SDS011;8444;52.012;5.048;2023-02-15T08:57:33;56.57;;;32.80;;
16660;SDS011;8444;52.012;5.048;2023-02-15T08:59:59;51.70;;;31.90;;
16660;SDS011;8444;52.012;5.048;2023-02-15T09:02:24;44.23;;;29.27;;
16660;SDS011;8444;52.012;5.048;2023-02-15T09:04:49;50.67;;;30.13;;
16660;SDS011;8444;52.012;5.048;2023-02-15T09:07:14;46.57;;;29.13;;
16660;SDS011;8444;52.012;5.048;2023-02-15T09:09:40;47.70;;;28.63;;
16660;SDS011;8444;52.012;5.048;2023-02-15T09:12:05;42.90;;;27.23;;
16660;SDS011;8444;52.012;5.048;2023-02-15T09:14:30;43.27;;;26.03;;
16660;SDS011;8444;52.012;5.048;2023-02-15T09:16:55;44.23;;;26.90;;
16660;SDS011;8444;52.012;5.048;2023-02-15T09:19:21;37.87;;;24.33;;
16660;SDS011;8444;52.012;5.048;2023-02-15T09:21:46;39.80;;;23.67;;
16660;SDS011;8444;52.012;5.048;2023-02-15T09:24:12;36.70;;;23.37;;
16660;SDS011;8444;52.012;5.048;2023-02-15T09:26:39;37.27;;;23.27;;
16660;SDS011;8444;52.012;5.048;2023-02-15T09:29:05;37.93;;;22.37;;
16660;SDS011;8444;52.012;5.048;2023-02-15T09:31:32;34.10;;;22.30;;
16660;SDS011;8444;52.012;5.048;2023-02-15T09:33:58;36.40;;;23.03;;
16660;SDS011;8444;52.012;5.048;2023-02-15T09:36:24;36.97;;;24.07;;
16660;SDS011;8444;52.012;5.048;2023-02-15T09:38:57;36.17;;;22.13;;
16660;SDS011;8444;52.012;5.048;2023-02-15T09:46:52;35.70;;;22.40;;
16660;SDS011;8444;52.012;5.048;2023-02-15T09:55:16;33.77;;;22.20;;
16660;SDS011;8444;52.012;5.048;2023-02-15T09:57:53;35.43;;;23.07;;
16660;SDS011;8444;52.012;5.048;2023-02-15T10:18:28;37.13;;;23.77;;
16660;SDS011;8444;52.012;5.048;2023-02-15T10:26:11;33.40;;;22.03;;
16660;SDS011;8444;52.012;5.048;2023-02-15T10:28:51;30.40;;;21.70;;
16660;SDS011;8444;52.012;5.048;2023-02-15T10:33:48;34.83;;;22.97;;
16660;SDS011;8444;52.012;5.048;2023-02-15T10:44:19;38.33;;;25.15;;
16660;SDS011;8444;52.012;5.048;2023-02-15T10:49:45;34.45;;;23.80;;
16660;SDS011;8444;52.012;5.048;2023-02-15T10:52:22;33.60;;;23.63;;
16660;SDS011;8444;52.012;5.048;2023-02-15T11:02:42;35.72;;;23.33;;
16660;SDS011;8444;52.012;5.048;2023-02-15T11:07:55;36.20;;;23.47;;
16660;SDS011;8444;52.012;5.048;2023-02-15T11:10:24;36.00;;;23.52;;
16660;SDS011;8444;52.012;5.048;2023-02-15T11:12:51;37.43;;;24.30;;
16660;SDS011;8444;52.012;5.048;2023-02-15T11:15:34;38.85;;;25.77;;
16660;SDS011;8444;52.012;5.048;2023-02-15T11:18:09;32.70;;;22.88;;
16660;SDS011;8444;52.012;5.048;2023-02-15T11:20:49;35.47;;;23.80;;
16660;SDS011;8444;52.012;5.048;2023-02-15T11:23:18;54.07;;;24.97;;
16660;SDS011;8444;52.012;5.048;2023-02-15T11:25:52;36.55;;;24.90;;
16660;SDS011;8444;52.012;5.048;2023-02-15T11:28:20;39.05;;;24.52;;
16660;SDS011;8444;52.012;5.048;2023-02-15T11:30:49;35.15;;;24.55;;
16660;SDS011;8444;52.012;5.048;2023-02-15T11:33:18;38.58;;;25.48;;
16660;SDS011;8444;52.012;5.048;2023-02-15T11:35:49;34.17;;;23.98;;
16660;SDS011;8444;52.012;5.048;2023-02-15T11:38:22;36.05;;;24.55;;
16660;SDS011;8444;52.012;5.048;2023-02-15T11:41:09;35.03;;;25.02;;
16660;SDS011;8444;52.012;5.048;2023-02-15T11:46:00;39.15;;;25.40;;
16660;SDS011;8444;52.012;5.048;2023-02-15T11:48:25;34.67;;;26.00;;
16660;SDS011;8444;52.012;5.048;2023-02-15T11:50:50;38.10;;;26.23;;
16660;SDS011;8444;52.012;5.048;2023-02-15T11:53:16;35.17;;;24.92;;
16660;SDS011;8444;52.012;5.048;2023-02-15T11:55:43;35.10;;;25.58;;
16660;SDS011;8444;52.012;5.048;2023-02-15T12:00:46;38.90;;;25.65;;
16660;SDS011;8444;52.012;5.048;2023-02-15T12:03:17;36.05;;;26.05;;
16660;SDS011;8444;52.012;5.048;2023-02-15T12:05:44;38.17;;;27.20;;
16660;SDS011;8444;52.012;5.048;2023-02-15T12:08:15;39.47;;;27.02;;
16660;SDS011;8444;52.012;5.048;2023-02-15T12:13:16;39.00;;;27.08;;
16660;SDS011;8444;52.012;5.048;2023-02-15T12:15:43;39.85;;;25.65;;
16660;SDS011;8444;52.012;5.048;2023-02-15T12:20:52;37.80;;;25.73;;
16660;SDS011;8444;52.012;5.048;2023-02-15T12:23:17;37.10;;;28.05;;
16660;SDS011;8444;52.012;5.048;2023-02-15T12:25:48;36.65;;;26.33;;
16660;SDS011;8444;52.012;5.048;2023-02-15T12:28:22;37.88;;;26.27;;
16660;SDS011;8444;52.012;5.048;2023-02-15T12:30:48;37.13;;;26.15;;
16660;SDS011;8444;52.012;5.048;2023-02-15T12:33:28;39.63;;;27.65;;
16660;SDS011;8444;52.012;5.048;2023-02-15T12:35:59;38.47;;;27.13;;
16660;SDS011;8444;52.012;5.048;2023-02-15T12:38:26;36.45;;;26.30;;
16660;SDS011;8444;52.012;5.048;2023-02-15T12:41:03;38.70;;;25.98;;
16660;SDS011;8444;52.012;5.048;2023-02-15T12:45:53;38.83;;;26.50;;
16660;SDS011;8444;52.012;5.048;2023-02-15T12:48:37;40.60;;;27.70;;
16660;SDS011;8444;52.012;5.048;2023-02-15T12:51:06;40.58;;;27.20;;
16660;SDS011;8444;52.012;5.048;2023-02-15T12:53:33;41.70;;;27.88;;
16660;SDS011;8444;52.012;5.048;2023-02-15T12:56:00;39.63;;;27.23;;
16660;SDS011;8444;52.012;5.048;2023-02-15T12:58:27;41.30;;;27.65;;
16660;SDS011;8444;52.012;5.048;2023-02-15T13:01:03;39.03;;;28.85;;
16660;SDS011;8444;52.012;5.048;2023-02-15T13:03:29;35.72;;;25.55;;
16660;SDS011;8444;52.012;5.048;2023-02-15T13:05:55;41.35;;;28.05;;
16660;SDS011;8444;52.012;5.048;2023-02-15T13:08:22;38.15;;;27.33;;
16660;SDS011;8444;52.012;5.048;2023-02-15T13:11:07;39.60;;;28.90;;
16660;SDS011;8444;52.012;5.048;2023-02-15T13:13:50;40.33;;;26.85;;
16660;SDS011;8444;52.012;5.048;2023-02-15T13:16:15;34.47;;;25.23;;
16660;SDS011;8444;52.012;5.048;2023-02-15T13:18:43;38.40;;;25.92;;
16660;SDS011;8444;52.012;5.048;2023-02-15T13:21:10;36.80;;;23.52;;
16660;SDS011;8444;52.012;5.048;2023-02-15T13:23:36;39.67;;;25.17;;
16660;SDS011;8444;52.012;5.048;2023-02-15T13:26:03;33.50;;;25.38;;
16660;SDS011;8444;52.012;5.048;2023-02-15T13:28:36;35.95;;;25.55;;
16660;SDS011;8444;52.012;5.048;2023-02-15T13:31:02;36.83;;;26.23;;
16660;SDS011;8444;52.012;5.048;2023-02-15T13:33:34;35.10;;;26.08;;
16660;SDS011;8444;52.012;5.048;2023-02-15T13:41:12;39.22;;;27.40;;
16660;SDS011;8444;52.012;5.048;2023-02-15T13:46:38;35.78;;;25.67;;
16660;SDS011;8444;52.012;5.048;2023-02-15T14:04:58;38.85;;;25.17;;
16660;SDS011;8444;52.012;5.048;2023-02-15T14:25:54;36.85;;;27.50;;
16660;SDS011;8444;52.012;5.048;2023-02-15T14:31:04;37.00;;;25.17;;
16660;SDS011;8444;52.012;5.048;2023-02-15T14:33:36;37.03;;;24.85;;
16660;SDS011;8444;52.012;5.048;2023-02-15T14:36:04;36.60;;;26.30;;
16660;SDS011;8444;52.012;5.048;2023-02-15T14:38:51;38.72;;;25.85;;
16660;SDS011;8444;52.012;5.048;2023-02-15T14:46:44;41.75;;;26.85;;
16660;SDS011;8444;52.012;5.048;2023-02-15T14:54:05;38.00;;;27.33;;
16660;SDS011;8444;52.012;5.048;2023-02-15T14:56:31;38.97;;;27.70;;
16660;SDS011;8444;52.012;5.048;2023-02-15T14:58:57;38.92;;;26.73;;
16660;SDS011;8444;52.012;5.048;2023-02-15T15:01:27;46.90;;;27.20;;
16660;SDS011;8444;52.012;5.048;2023-02-15T15:03:57;43.05;;;29.00;;
16660;SDS011;8444;52.012;5.048;2023-02-15T15:06:27;41.95;;;29.65;;
16660;SDS011;8444;52.012;5.048;2023-02-15T15:08:54;42.72;;;27.23;;
16660;SDS011;8444;52.012;5.048;2023-02-15T15:13:56;40.75;;;28.50;;
16660;SDS011;8444;52.012;5.048;2023-02-15T15:16:46;50.95;;;29.08;;
16660;SDS011;8444;52.012;5.048;2023-02-15T15:19:12;43.72;;;29.30;;
16660;SDS011;8444;52.012;5.048;2023-02-15T15:22:02;45.20;;;28.60;;
16660;SDS011;8444;52.012;5.048;2023-02-15T15:29:46;44.38;;;29.58;;
16660;SDS011;8444;52.012;5.048;2023-02-15T15:32:11;44.83;;;28.85;;
16660;SDS011;8444;52.012;5.048;2023-02-15T15:38:10;44.47;;;30.40;;
16660;SDS011;8444;52.012;5.048;2023-02-15T15:46:24;41.47;;;26.95;;
16660;SDS011;8444;52.012;5.048;2023-02-15T15:50:51;41.37;;;29.00;;
16660;SDS011;8444;52.012;5.048;2023-02-15T15:53:22;42.75;;;28.90;;
16660;SDS011;8444;52.012;5.048;2023-02-15T15:55:49;42.90;;;29.67;;
16660;SDS011;8444;52.012;5.048;2023-02-15T15:58:16;43.15;;;27.63;;
16660;SDS011;8444;52.012;5.048;2023-02-15T16:03:18;41.28;;;27.52;;
16660;SDS011;8444;52.012;5.048;2023-02-15T16:05:45;41.00;;;28.38;;
16660;SDS011;8444;52.012;5.048;2023-02-15T16:08:11;41.05;;;28.77;;
16660;SDS011;8444;52.012;5.048;2023-02-15T16:10:36;42.38;;;29.40;;
16660;SDS011;8444;52.012;5.048;2023-02-15T16:13:03;49.17;;;29.60;;
16660;SDS011;8444;52.012;5.048;2023-02-15T16:15:45;45.83;;;28.52;;
16660;SDS011;8444;52.012;5.048;2023-02-15T16:18:15;41.78;;;27.63;;
16660;SDS011;8444;52.012;5.048;2023-02-15T16:20:41;41.97;;;29.58;;
16660;SDS011;8444;52.012;5.048;2023-02-15T16:23:21;45.10;;;27.53;;
16660;SDS011;8444;52.012;5.048;2023-02-15T16:28:15;43.63;;;27.60;;
16660;SDS011;8444;52.012;5.048;2023-02-15T16:30:43;43.10;;;27.63;;
16660;SDS011;8444;52.012;5.048;2023-02-15T16:33:13;44.63;;;28.13;;
16660;SDS011;8444;52.012;5.048;2023-02-15T16:35:40;43.00;;;27.43;;
16660;SDS011;8444;52.012;5.048;2023-02-15T16:38:08;46.07;;;27.87;;
16660;SDS011;8444;52.012;5.048;2023-02-15T16:40:35;43.83;;;27.30;;
16660;SDS011;8444;52.012;5.048;2023-02-15T16:43:04;40.93;;;27.93;;
16660;SDS011;8444;52.012;5.048;2023-02-15T16:45:32;40.20;;;27.47;;
16660;SDS011;8444;52.012;5.048;2023-02-15T16:47:58;44.37;;;27.93;;
16660;SDS011;8444;52.012;5.048;2023-02-15T16:50:34;46.60;;;28.63;;
16660;SDS011;8444;52.012;5.048;2023-02-15T16:53:01;41.53;;;27.63;;
16660;SDS011;8444;52.012;5.048;2023-02-15T16:55:28;48.37;;;31.07;;
16660;SDS011;8444;52.012;5.048;2023-02-15T16:57:59;51.93;;;30.43;;
16660;SDS011;8444;52.012;5.048;2023-02-15T17:00:25;43.27;;;28.47;;
16660;SDS011;8444;52.012;5.048;2023-02-15T17:02:59;42.87;;;28.77;;
16660;SDS011;8444;52.012;5.048;2023-02-15T17:05:28;46.37;;;29.97;;
16660;SDS011;8444;52.012;5.048;2023-02-15T17:08:14;48.77;;;29.90;;
16660;SDS011;8444;52.012;5.048;2023-02-15T17:10:41;46.93;;;29.23;;
16660;SDS011;8444;52.012;5.048;2023-02-15T17:13:13;49.30;;;31.70;;
16660;SDS011;8444;52.012;5.048;2023-02-15T17:20:29;50.87;;;31.67;;
16660;SDS011;8444;52.012;5.048;2023-02-15T17:22:54;48.57;;;30.40;;
16660;SDS011;8444;52.012;5.048;2023-02-15T17:25:23;54.30;;;33.00;;
16660;SDS011;8444;52.012;5.048;2023-02-15T17:27:52;53.40;;;33.27;;
16660;SDS011;8444;52.012;5.048;2023-02-15T17:30:24;53.17;;;30.80;;
16660;SDS011;8444;52.012;5.048;2023-02-15T17:32:52;49.63;;;31.57;;
16660;SDS011;8444;52.012;5.048;2023-02-15T17:35:19;52.20;;;32.17;;
16660;SDS011;8444;52.012;5.048;2023-02-15T17:37:46;52.93;;;35.17;;
16660;SDS011;8444;52.012;5.048;2023-02-15T17:42:43;55.20;;;30.77;;
16660;SDS011;8444;52.012;5.048;2023-02-15T17:45:08;58.80;;;32.40;;
16660;SDS011;8444;52.012;5.048;2023-02-15T17:47:33;50.97;;;31.80;;
16660;SDS011;8444;52.012;5.048;2023-02-15T17:49:58;49.43;;;30.60;;
16660;SDS011;8444;52.012;5.048;2023-02-15T17:52:26;53.17;;;32.63;;